Rejestracja

Wszystkie dane podawane są w czasie UTC za wyjątkiem miejsc gdzie jest jednoznacznie podane, że jest inaczej. Dane podawane w serwisie mają charakter informacyjny!!!
Informacje w sprawie dostępu do serwisu pod numerem tel. +48 261-828-559 lub +48 261-828-138
Informacja dla żołnierzy i pracowników wojska: Prosimy o niezwłoczną zmianę adresu e-mail w profilu użytkownika na pocztę w domenie @ron.mil.pl
Brak służbowego adresu e-mail skutkuje usunięciem konta.

Aktualna Pogoda
 
Pogoda w Polsce
10°C Szczecin 0°C Suwałki 3°C Warszawa 6°C Poznan
7°C Opole 6°C Kraków 8°C Rzeszów
Więcej miast w Polsce

Pogoda w Europie
10°C Berlin 4°C Paryz 4°C Bruksela 4°C Oslo
5°C Praga 10°C Zagrzeb
Więcej miast w Europie

Metary wojskowe test
METAR EPBC 220800Z 15004KT CAVOK 04/01 Q0999=
METAR EPCE 220830Z 18015G32KT 9999 FEW061 07/M01 Q0990 RMK 068 059 2/2=
METAR EPDA 220830Z 19021KT 140V220 CAVOK 08/01 Q0987 RMK 083 060 1/1=
METAR EPDE 220830Z 16008KT CAVOK 05/01 Q1001 RMK 053 075 5/5=
METAR EPIR 220830Z 15014KT CAVOK 04/01 Q0994 RMK 038 082 6/4=
METAR EPKS 220830Z 18010KT 150V210 CAVOK 07/03 Q0994 RMK 068 076 3/3=
METAR EPLK 220830Z 17008KT 120V210 CAVOK 05/03 Q0998 RMK 050 085 7/7=
METAR EPLY 220830Z 19012KT CAVOK 06/02 Q0996 RMK 060 076 7/4=
METAR EPMB 220830Z 16013KT 9999 FEW040 BKN090 04/01 Q0993 RMK 042 081 6/2=
METAR EPMI 220830Z 16010KT 130V210 9999 FEW050 06/01 Q0990 RMK 056 071 2/2=
METAR EPMM 220830Z 17008KT 140V210 9999 BKN150 04/01 Q1000 RMK 043 079 6/6=
METAR EPNA 220800Z 17012KT 9999 SCT070 05/M00 Q0991 RMK 046 069 3/3=
METAR EPOK 220830Z 13010KT 9999 SCT072 05/00 Q0991 RMK 054 069 3/3=
METAR EPPR 220830Z 16004KT 9999 BKN200 04/M00 Q0992 RMK 035 076 5/5=
METAR EPPW 220830Z 17010KT 9999 SCT090 BKN200 05/04 Q0995 RMK 054 088 6/4=
METAR EPSN 220830Z 18015KT 160V220 9999 SCT090 07/01 Q0988 RMK 071 065 3/3=
METAR EPTM 220830Z 17008KT 9999 NSC 05/01 Q0999 RMK 047 075 6/3=


 

Prawa autorskie©2007 SSH SZ RP. Wszelkie prawa zastrzeżone.